Time;durP1;ratioP1;P1;durP2;ratioP2;P2;SDS_P1;SDS_P2;PMS_P1;PMS_P2;Temp;Humidity;BMP_temperature;BMP_pressure;BME280_temperature;BME280_humidity;BME280_pressure;Samples;Min_cycle;Max_cycle;Signal;HPM_P1;HPM_P2
2023/03/01 00:01:46;;;;;;;;;;;18.20;33.00;;;;;;5092493;28;19920;-70
2023/03/01 00:04:12;;;;;;;;;;;18.10;33.10;;;;;;5092422;28;20327;-70
2023/03/01 00:06:38;;;;;;;;;;;18.00;33.10;;;;;;5124938;27;20015;-70
2023/03/01 00:09:03;;;;;;;;;;;18.00;33.20;;;;;;5091208;28;19967;-71
2023/03/01 00:11:30;;;;;;;;;;;17.90;33.30;;;;;;5092346;28;19920;-70
2023/03/01 00:13:57;;;;;;;;;;;17.80;33.40;;;;;;5092490;28;19967;-70
2023/03/01 00:16:26;;;;;;;;;;;17.80;33.50;;;;;;5092383;28;19928;-70
2023/03/01 00:18:51;;;;;;;;;;;17.70;33.50;;;;;;5090953;28;19920;-71
2023/03/01 00:21:17;;;;;;;;;;;17.60;33.50;;;;;;5125177;28;19927;-71
2023/03/01 00:23:43;;;;;;;;;;;17.60;33.60;;;;;;5091377;28;19920;-70
2023/03/01 00:26:10;;;;;;;;;;;17.50;33.70;;;;;;5092163;28;20326;-70
2023/03/01 00:28:36;;;;;;;;;;;17.40;33.80;;;;;;5093632;28;19994;-70
2023/03/01 00:31:03;;;;;;;;;;;17.40;33.80;;;;;;5078280;28;19928;-70
2023/03/01 00:33:29;;;;;;;;;;;17.30;33.90;;;;;;5096267;28;20024;-70
2023/03/01 00:35:54;;;;;;;;;;;17.30;34.80;;;;;;5129280;27;20466;-70
2023/03/01 00:38:20;;;;;;;;;;;17.20;34.00;;;;;;5094941;28;20014;-70
2023/03/01 00:40:45;;;;;;;;;;;17.10;34.10;;;;;;5128990;27;20002;-71
2023/03/01 00:43:11;;;;;;;;;;;17.10;34.20;;;;;;5094824;28;19920;-70
2023/03/01 00:45:36;;;;;;;;;;;17.00;34.20;;;;;;5095773;28;19987;-70
2023/03/01 00:48:05;;;;;;;;;;;16.90;34.30;;;;;;5096057;28;19920;-70
2023/03/01 00:50:30;;;;;;;;;;;16.70;34.30;;;;;;5128713;27;19927;-70
2023/03/01 00:52:56;;;;;;;;;;;16.80;34.50;;;;;;5094775;28;19920;-71
2023/03/01 00:55:22;;;;;;;;;;;16.70;34.70;;;;;;5094660;28;20279;-71
2023/03/01 00:57:48;;;;;;;;;;;16.60;34.70;;;;;;5094755;28;19978;-70
2023/03/01 01:00:13;;;;;;;;;;;16.60;34.70;;;;;;5094452;28;19959;-70
2023/03/01 01:02:39;;;;;;;;;;;16.60;34.90;;;;;;5094641;28;20044;-70
2023/03/01 01:05:05;;;;;;;;;;;16.50;34.90;;;;;;5094362;28;19927;-70
2023/03/01 01:07:30;;;;;;;;;;;16.50;34.90;;;;;;5093862;28;19928;-70
2023/03/01 01:09:56;;;;;;;;;;;16.50;35.00;;;;;;5094277;28;19920;-70
2023/03/01 01:12:22;;;;;;;;;;;16.50;34.90;;;;;;5095364;28;19967;-70
2023/03/01 01:14:47;;;;;;;;;;;16.50;35.00;;;;;;5095784;28;19924;-70
2023/03/01 01:17:13;;;;;;;;;;;16.40;35.00;;;;;;5095447;28;19920;-70
2023/03/01 01:19:38;;;;;;;;;;;16.40;35.00;;;;;;5093580;28;20282;-71
2023/03/01 01:22:04;;;;;;;;;;;16.40;35.00;;;;;;5094187;28;20375;-71
2023/03/01 01:24:30;;;;;;;;;;;16.50;35.00;;;;;;5095271;28;19932;-71
2023/03/01 01:26:55;;;;;;;;;;;16.60;34.90;;;;;;5093843;28;19924;-70
2023/03/01 01:29:24;;;;;;;;;;;16.80;34.70;;;;;;5093968;28;19985;-70
2023/03/01 01:31:49;;;;;;;;;;;17.10;34.60;;;;;;5095278;28;20395;-70
2023/03/01 01:34:17;;;;;;;;;;;17.30;34.10;;;;;;5095143;28;19951;-70
2023/03/01 01:36:43;;;;;;;;;;;17.70;33.80;;;;;;5093750;28;19927;-70
2023/03/01 01:39:12;;;;;;;;;;;18.10;33.40;;;;;;5093504;28;19943;-71
2023/03/01 01:41:39;;;;;;;;;;;18.40;33.70;;;;;;5093968;28;19927;-70
2023/03/01 01:47:00;;;;;;;;;;;19.20;31.90;;;;;;5061645;27;2558754;-70
2023/03/01 01:49:30;;;;;;;;;;;19.70;31.50;;;;;;5133043;27;19919;-70
2023/03/01 01:51:59;;;;;;;;;;;20.10;31.10;;;;;;5132965;27;19966;-70
2023/03/01 01:54:27;;;;;;;;;;;20.50;30.50;;;;;;5132631;27;19927;-70
2023/03/01 01:56:56;;;;;;;;;;;20.80;30.30;;;;;;5132775;27;19955;-70
2023/03/01 01:59:24;;;;;;;;;;;21.10;30.00;;;;;;5132859;27;19923;-71
2023/03/01 02:01:50;;;;;;;;;;;21.40;29.80;;;;;;5132616;27;19945;-70
2023/03/01 02:04:16;;;;;;;;;;;21.70;29.60;;;;;;5133354;27;19989;-70
2023/03/01 02:06:47;;;;;;;;;;;21.90;29.40;;;;;;5151044;27;19970;-70
2023/03/01 02:09:13;;;;;;;;;;;22.00;29.00;;;;;;5151021;27;19919;-71
2023/03/01 02:11:39;;;;;;;;;;;22.10;29.00;;;;;;5132746;27;19923;-70
2023/03/01 02:14:05;;;;;;;;;;;22.10;28.80;;;;;;5132286;27;20455;-70
2023/03/01 02:16:30;;;;;;;;;;;22.20;28.80;;;;;;5132339;27;19919;-71
2023/03/01 02:18:56;;;;;;;;;;;22.10;28.80;;;;;;5150957;27;19975;-71
2023/03/01 02:21:41;;;;;;;;;;;22.00;28.80;;;;;;5132262;27;20370;-71
2023/03/01 02:24:18;;;;;;;;;;;22.00;28.90;;;;;;5150600;27;19971;-70
2023/03/01 02:26:46;;;;;;;;;;;21.90;29.00;;;;;;5132137;27;20035;-71
2023/03/01 02:29:12;;;;;;;;;;;21.70;29.00;;;;;;5131973;27;19938;-71
2023/03/01 02:31:44;;;;;;;;;;;21.60;29.00;;;;;;5132049;27;19931;-71
2023/03/01 02:34:12;;;;;;;;;;;21.50;29.10;;;;;;5132249;27;20010;-71
2023/03/01 02:36:42;;;;;;;;;;;21.30;29.20;;;;;;5131943;27;20386;-70
2023/03/01 02:39:14;;;;;;;;;;;21.20;29.30;;;;;;5132308;27;20002;-71
2023/03/01 02:41:42;;;;;;;;;;;21.00;29.40;;;;;;5114716;27;19923;-71
2023/03/01 02:44:08;;;;;;;;;;;20.90;29.50;;;;;;5128086;27;19927;-71
2023/03/01 02:46:33;;;;;;;;;;;20.80;29.70;;;;;;5110710;28;19931;-71
2023/03/01 02:49:00;;;;;;;;;;;20.60;29.70;;;;;;5111237;28;20022;-71
2023/03/01 02:54:19;;;;;;;;;;;20.40;29.90;;;;;;5110162;27;19919;-71
2023/03/01 02:56:48;;;;;;;;;;;20.20;30.00;;;;;;5108823;28;19974;-70
2023/03/01 02:59:13;;;;;;;;;;;20.00;30.00;;;;;;5109180;28;19970;-70
2023/03/01 03:01:39;;;;;;;;;;;19.90;30.20;;;;;;5108798;28;19967;-70
2023/03/01 03:04:06;;;;;;;;;;;19.80;30.30;;;;;;5108855;28;19939;-71
2023/03/01 03:06:35;;;;;;;;;;;19.70;30.40;;;;;;5108989;28;20018;-70
2023/03/01 03:09:00;;;;;;;;;;;19.50;30.50;;;;;;5108973;28;19924;-70
2023/03/01 03:11:26;;;;;;;;;;;19.50;30.70;;;;;;5108607;28;20388;-70
2023/03/01 03:13:52;;;;;;;;;;;19.30;30.70;;;;;;5108672;28;19947;-71
2023/03/01 03:16:18;;;;;;;;;;;19.20;30.90;;;;;;5108810;28;19920;-71
2023/03/01 03:18:44;;;;;;;;;;;19.20;31.00;;;;;;5108522;28;19927;-71
2023/03/01 03:21:10;;;;;;;;;;;19.10;31.10;;;;;;5108401;28;19919;-71
2023/03/01 03:23:36;;;;;;;;;;;18.90;31.10;;;;;;5108324;28;19920;-71
2023/03/01 03:26:03;;;;;;;;;;;18.90;31.30;;;;;;5108595;28;19973;-70
2023/03/01 03:28:30;;;;;;;;;;;18.80;31.40;;;;;;5108586;28;19999;-71
2023/03/01 03:30:56;;;;;;;;;;;18.70;31.50;;;;;;5109582;28;19942;-70
2023/03/01 03:33:21;;;;;;;;;;;18.60;31.50;;;;;;5108181;28;19924;-71
2023/03/01 03:35:48;;;;;;;;;;;18.60;31.70;;;;;;5108180;28;19920;-71
2023/03/01 03:38:15;;;;;;;;;;;18.50;31.80;;;;;;5108445;28;19920;-71
2023/03/01 03:40:45;;;;;;;;;;;18.40;31.90;;;;;;5108584;28;19920;-71
2023/03/01 03:43:12;;;;;;;;;;;18.30;31.90;;;;;;5108035;28;20367;-71
2023/03/01 03:45:38;;;;;;;;;;;18.20;31.90;;;;;;5108292;28;19920;-71
2023/03/01 03:48:05;;;;;;;;;;;18.20;32.10;;;;;;5107976;28;19920;-70
2023/03/01 03:50:30;;;;;;;;;;;18.10;32.10;;;;;;5108224;28;20011;-71
2023/03/01 03:52:56;;;;;;;;;;;18.00;32.20;;;;;;5108767;28;20349;-71
2023/03/01 03:55:22;;;;;;;;;;;17.90;32.20;;;;;;5107942;28;19934;-71
2023/03/01 03:57:51;;;;;;;;;;;17.90;32.30;;;;;;5109262;28;20019;-71
2023/03/01 04:00:18;;;;;;;;;;;17.80;32.40;;;;;;5109263;28;20287;-71
2023/03/01 04:02:44;;;;;;;;;;;17.70;32.40;;;;;;5108976;28;19920;-70
2023/03/01 04:05:11;;;;;;;;;;;17.70;32.50;;;;;;5097484;28;19970;-71
2023/03/01 04:07:37;;;;;;;;;;;17.60;32.60;;;;;;5094270;28;20433;-70
2023/03/01 04:10:04;;;;;;;;;;;17.50;32.70;;;;;;5093950;28;19972;-70
2023/03/01 04:12:30;;;;;;;;;;;17.40;32.80;;;;;;5094069;28;19925;-71
2023/03/01 04:14:58;;;;;;;;;;;17.40;32.80;;;;;;5094346;28;19927;-71
2023/03/01 04:17:24;;;;;;;;;;;17.30;33.00;;;;;;5094185;28;20007;-71
2023/03/01 04:19:49;;;;;;;;;;;17.20;33.10;;;;;;5093755;28;20485;-71
2023/03/01 04:22:18;;;;;;;;;;;17.10;33.10;;;;;;5094103;28;19968;-71
2023/03/01 04:24:47;;;;;;;;;;;17.00;33.30;;;;;;5093583;28;20444;-71
2023/03/01 04:27:13;;;;;;;;;;;17.00;33.40;;;;;;5094251;28;19920;-70
2023/03/01 04:29:38;;;;;;;;;;;16.90;33.40;;;;;;5093525;28;20425;-71
2023/03/01 04:32:04;;;;;;;;;;;16.80;33.50;;;;;;5093510;28;19974;-71
2023/03/01 04:34:30;;;;;;;;;;;16.70;33.70;;;;;;5093767;28;20291;-71
2023/03/01 04:36:55;;;;;;;;;;;16.70;33.70;;;;;;5094818;28;19939;-71
2023/03/01 04:39:21;;;;;;;;;;;16.80;33.80;;;;;;5093602;28;20375;-70
2023/03/01 04:41:46;;;;;;;;;;;17.00;33.60;;;;;;5093698;28;19920;-71
2023/03/01 04:44:12;;;;;;;;;;;17.30;33.40;;;;;;5093491;28;20326;-71
2023/03/01 04:46:41;;;;;;;;;;;17.70;33.10;;;;;;5094813;28;20320;-71
2023/03/01 04:49:06;;;;;;;;;;;18.20;32.60;;;;;;5093242;28;19959;-71
2023/03/01 04:51:32;;;;;;;;;;;18.60;31.90;;;;;;5093259;28;19974;-71
2023/03/01 04:53:58;;;;;;;;;;;19.10;31.40;;;;;;5092755;28;19985;-71
2023/03/01 04:56:23;;;;;;;;;;;19.60;30.90;;;;;;5093040;28;20119;-70
2023/03/01 04:58:49;;;;;;;;;;;20.00;30.20;;;;;;5111726;28;19919;-70
2023/03/01 05:01:16;;;;;;;;;;;20.50;30.00;;;;;;5113070;28;19923;-71
2023/03/01 05:03:43;;;;;;;;;;;20.80;29.70;;;;;;5114634;28;19919;-70
2023/03/01 05:06:10;;;;;;;;;;;21.20;29.40;;;;;;5113259;28;19920;-70
2023/03/01 05:08:36;;;;;;;;;;;21.50;29.10;;;;;;5113621;28;20417;-70
2023/03/01 05:11:02;;;;;;;;;;;21.80;28.90;;;;;;5113194;28;20370;-71
2023/03/01 05:13:29;;;;;;;;;;;22.00;28.70;;;;;;5114594;28;20431;-70
2023/03/01 05:15:55;;;;;;;;;;;22.20;28.30;;;;;;5112151;28;19920;-71
2023/03/01 05:18:25;;;;;;;;;;;22.40;28.20;;;;;;5113368;28;19961;-71
2023/03/01 05:20:51;;;;;;;;;;;22.50;28.10;;;;;;5112999;28;19932;-71
2023/03/01 05:23:18;;;;;;;;;;;22.50;28.00;;;;;;5113023;28;20001;-71
2023/03/01 05:25:43;;;;;;;;;;;22.50;28.00;;;;;;5113066;28;19948;-71
2023/03/01 05:28:11;;;;;;;;;;;22.50;28.00;;;;;;5114594;28;19923;-71
2023/03/01 05:30:38;;;;;;;;;;;22.40;28.00;;;;;;5114101;27;19920;-71
2023/03/01 05:33:04;;;;;;;;;;;22.40;28.00;;;;;;5114068;28;19923;-71
2023/03/01 05:35:32;;;;;;;;;;;22.20;28.00;;;;;;5112642;28;19920;-71
2023/03/01 05:37:58;;;;;;;;;;;22.10;28.10;;;;;;5112768;28;19998;-71
2023/03/01 05:40:23;;;;;;;;;;;21.90;28.20;;;;;;5113876;28;20085;-71
2023/03/01 05:42:53;;;;;;;;;;;21.80;28.30;;;;;;5112561;28;19919;-70
2023/03/01 05:45:19;;;;;;;;;;;21.60;28.30;;;;;;5114206;28;19926;-71
2023/03/01 05:47:46;;;;;;;;;;;21.60;28.50;;;;;;5112925;28;19930;-70
2023/03/01 05:50:13;;;;;;;;;;;21.30;28.50;;;;;;5112794;28;19989;-70
2023/03/01 05:52:38;;;;;;;;;;;21.20;28.60;;;;;;5111893;28;20371;-70
2023/03/01 05:55:04;;;;;;;;;;;21.00;28.70;;;;;;5103185;28;19928;-70
2023/03/01 05:57:30;;;;;;;;;;;20.90;28.80;;;;;;5091815;28;19920;-70
2023/03/01 05:59:55;;;;;;;;;;;20.70;28.90;;;;;;5092182;28;19920;-70
2023/03/01 06:02:21;;;;;;;;;;;20.70;29.00;;;;;;5091810;28;19920;-71
2023/03/01 06:04:46;;;;;;;;;;;20.40;29.00;;;;;;5092083;28;19920;-71
2023/03/01 06:07:12;;;;;;;;;;;20.40;29.20;;;;;;5092989;28;20000;-71
2023/03/01 06:09:37;;;;;;;;;;;20.20;29.30;;;;;;5092996;28;20360;-71
2023/03/01 06:12:03;;;;;;;;;;;20.10;29.30;;;;;;5091812;28;20287;-71
2023/03/01 06:14:28;;;;;;;;;;;20.00;29.50;;;;;;5074830;28;19927;-71
2023/03/01 06:16:54;;;;;;;;;;;19.90;29.60;;;;;;5092981;28;19942;-71
2023/03/01 06:19:19;;;;;;;;;;;19.70;29.70;;;;;;5092989;28;20354;-71
2023/03/01 06:21:45;;;;;;;;;;;19.60;29.70;;;;;;5091501;28;20442;-71
2023/03/01 06:24:10;;;;;;;;;;;19.50;29.80;;;;;;5092823;28;20011;-71
2023/03/01 06:26:36;;;;;;;;;;;19.40;29.90;;;;;;5092498;28;19920;-71
2023/03/01 06:29:05;;;;;;;;;;;19.30;29.90;;;;;;5092630;28;19966;-71
2023/03/01 06:31:30;;;;;;;;;;;19.20;30.00;;;;;;5092835;28;20296;-71
2023/03/01 06:33:56;;;;;;;;;;;19.10;30.00;;;;;;5091205;28;19924;-71
2023/03/01 06:36:21;;;;;;;;;;;19.00;30.10;;;;;;5091650;28;19920;-71
2023/03/01 06:38:47;;;;;;;;;;;18.90;30.10;;;;;;5092523;28;19927;-71
2023/03/01 06:41:12;;;;;;;;;;;18.80;30.20;;;;;;5092382;28;19921;-71
2023/03/01 06:43:38;;;;;;;;;;;18.80;30.40;;;;;;5092375;28;19927;-71
2023/03/01 06:46:05;;;;;;;;;;;18.70;30.40;;;;;;5092535;28;19927;-71
2023/03/01 06:48:30;;;;;;;;;;;18.60;30.50;;;;;;5092410;28;19920;-71
2023/03/01 06:50:58;;;;;;;;;;;18.50;30.50;;;;;;5091808;28;20264;-71
2023/03/01 06:53:27;;;;;;;;;;;18.40;30.60;;;;;;5092002;28;19971;-71
2023/03/01 06:55:54;;;;;;;;;;;18.40;30.60;;;;;;5090988;28;19924;-71
2023/03/01 06:58:20;;;;;;;;;;;18.30;30.70;;;;;;5092345;28;19923;-70
2023/03/01 07:00:45;;;;;;;;;;;18.20;30.80;;;;;;5091086;28;20023;-71
2023/03/01 07:03:11;;;;;;;;;;;18.30;30.90;;;;;;5090993;28;19942;-71
2023/03/01 07:05:36;;;;;;;;;;;18.10;30.90;;;;;;5091022;28;19929;-70
2023/03/01 07:08:02;;;;;;;;;;;17.90;30.90;;;;;;5092300;28;19920;-70
2023/03/01 07:10:27;;;;;;;;;;;17.90;31.10;;;;;;5092183;28;20298;-71
2023/03/01 07:12:54;;;;;;;;;;;17.80;31.10;;;;;;5091135;28;19924;-70
2023/03/01 07:15:20;;;;;;;;;;;17.70;31.10;;;;;;5091184;28;19986;-71
2023/03/01 07:17:50;;;;;;;;;;;17.60;31.20;;;;;;5091284;28;19963;-70
2023/03/01 07:20:16;;;;;;;;;;;17.70;31.30;;;;;;5090846;28;19924;-72
2023/03/01 07:22:42;;;;;;;;;;;17.50;31.40;;;;;;5074412;28;20014;-71
2023/03/01 07:25:08;;;;;;;;;;;17.50;31.50;;;;;;5096935;28;20018;-71
2023/03/01 07:27:34;;;;;;;;;;;17.40;31.50;;;;;;5111357;28;19920;-71
2023/03/01 07:29:59;;;;;;;;;;;17.30;31.60;;;;;;5112386;28;20375;-70
2023/03/01 07:32:25;;;;;;;;;;;17.30;31.60;;;;;;5111196;28;20390;-71
2023/03/01 07:34:51;;;;;;;;;;;17.20;31.60;;;;;;5111171;28;19919;-71
2023/03/01 07:37:16;;;;;;;;;;;17.40;31.70;;;;;;5112392;28;19920;-71
2023/03/01 07:39:42;;;;;;;;;;;17.60;31.50;;;;;;5112747;28;19924;-70
2023/03/01 07:42:08;;;;;;;;;;;17.90;31.30;;;;;;5114932;28;19965;-70
2023/03/01 07:44:34;;;;;;;;;;;18.30;31.00;;;;;;5114109;28;19920;-70
2023/03/01 07:47:00;;;;;;;;;;;18.70;30.50;;;;;;5115010;28;19988;-70
2023/03/01 07:49:27;;;;;;;;;;;19.20;30.20;;;;;;5115128;28;19919;-70
2023/03/01 07:51:52;;;;;;;;;;;19.60;29.80;;;;;;5114414;28;19923;-70
2023/03/01 07:54:18;;;;;;;;;;;20.10;29.40;;;;;;5113438;28;19976;-71
2023/03/01 07:56:44;;;;;;;;;;;20.50;29.10;;;;;;5094075;28;19920;-70
2023/03/01 07:59:09;;;;;;;;;;;20.90;28.90;;;;;;5094559;28;19987;-70
2023/03/01 08:01:35;;;;;;;;;;;21.20;28.70;;;;;;5094115;28;19924;-71
2023/03/01 08:04:01;;;;;;;;;;;21.60;28.40;;;;;;5094113;28;19928;-70
2023/03/01 08:06:27;;;;;;;;;;;21.80;28.10;;;;;;5095380;28;20280;-71
2023/03/01 08:08:55;;;;;;;;;;;22.10;27.90;;;;;;5095372;28;19927;-70
2023/03/01 08:11:21;;;;;;;;;;;22.30;27.80;;;;;;5095169;28;19927;-74
2023/03/01 08:13:48;;;;;;;;;;;22.50;27.50;;;;;;5093858;28;20317;-71
2023/03/01 08:16:14;;;;;;;;;;;22.70;27.50;;;;;;5094250;28;19924;-71
2023/03/01 08:18:40;;;;;;;;;;;22.80;27.40;;;;;;5093986;28;20222;-71
2023/03/01 08:21:07;;;;;;;;;;;22.90;27.40;;;;;;5094151;28;19924;-71
2023/03/01 08:23:33;;;;;;;;;;;23.00;27.30;;;;;;5093850;28;20398;-71
2023/03/01 08:26:14;;;;;;;;;;;23.00;27.30;;;;;;5093678;28;19924;-70
2023/03/01 08:28:40;;;;;;;;;;;22.90;27.30;;;;;;5094065;28;19959;-70
2023/03/01 08:31:23;;;;;;;;;;;22.90;27.30;;;;;;5093568;28;20700;-70
2023/03/01 08:33:54;;;;;;;;;;;22.70;27.30;;;;;;5093712;28;19920;-71
2023/03/01 08:36:20;;;;;;;;;;;22.60;27.40;;;;;;5094127;28;19930;-71
2023/03/01 08:38:46;;;;;;;;;;;22.40;27.50;;;;;;5093513;28;19974;-70
2023/03/01 08:41:12;;;;;;;;;;;22.30;27.60;;;;;;5093812;28;19920;-71
2023/03/01 08:43:37;;;;;;;;;;;22.10;27.80;;;;;;5094676;28;19927;-71
2023/03/01 08:46:03;;;;;;;;;;;22.00;28.00;;;;;;5093750;28;20317;-70
2023/03/01 08:48:28;;;;;;;;;;;21.80;28.00;;;;;;5093264;28;20379;-70
2023/03/01 08:50:54;;;;;;;;;;;21.60;28.10;;;;;;5093163;28;19920;-70
2023/03/01 08:53:20;;;;;;;;;;;21.40;28.20;;;;;;5092905;28;20217;-71
2023/03/01 08:55:45;;;;;;;;;;;21.20;28.30;;;;;;5093192;28;19927;-70
2023/03/01 08:58:11;;;;;;;;;;;21.20;28.50;;;;;;5093064;28;20017;-70
2023/03/01 09:00:36;;;;;;;;;;;20.90;28.60;;;;;;5093359;28;19927;-71
2023/03/01 09:03:02;;;;;;;;;;;20.80;28.80;;;;;;5094343;28;19920;-71
2023/03/01 09:05:28;;;;;;;;;;;20.70;28.90;;;;;;5093020;28;20294;-71
2023/03/01 09:07:53;;;;;;;;;;;20.50;29.10;;;;;;5093155;28;19920;-71
2023/03/01 09:10:19;;;;;;;;;;;20.30;29.10;;;;;;5093446;28;19934;-71
2023/03/01 09:12:44;;;;;;;;;;;20.20;29.20;;;;;;5092699;28;20405;-70
2023/03/01 09:15:10;;;;;;;;;;;20.10;29.30;;;;;;5092833;28;19920;-71
2023/03/01 09:17:35;;;;;;;;;;;20.00;29.40;;;;;;5092679;28;20014;-71
2023/03/01 09:20:01;;;;;;;;;;;19.90;29.50;;;;;;5092943;28;19927;-71
2023/03/01 09:22:26;;;;;;;;;;;19.80;29.60;;;;;;5094718;28;20275;-71
2023/03/01 09:24:52;;;;;;;;;;;19.70;29.70;;;;;;5092456;28;19920;-71
2023/03/01 09:27:19;;;;;;;;;;;19.60;29.80;;;;;;5092655;28;20005;-70
2023/03/01 09:29:45;;;;;;;;;;;19.50;29.80;;;;;;5092764;28;20010;-71
2023/03/01 09:32:10;;;;;;;;;;;19.40;29.90;;;;;;5092392;28;20324;-71
2023/03/01 09:35:00;;;;;;;;;;;19.30;30.00;;;;;;5092637;28;19920;-70
2023/03/01 09:37:26;;;;;;;;;;;19.20;30.00;;;;;;5092468;28;19920;-71
2023/03/01 09:39:51;;;;;;;;;;;19.10;30.10;;;;;;5092313;28;19923;-71
2023/03/01 09:42:17;;;;;;;;;;;19.00;30.10;;;;;;5092184;28;19998;-71
2023/03/01 09:47:25;;;;;;;;;;;18.80;30.40;;;;;;5090023;28;19946;-71
2023/03/01 09:50:01;;;;;;;;;;;18.70;30.40;;;;;;5089845;28;20311;-70
2023/03/01 09:52:32;;;;;;;;;;;18.60;30.50;;;;;;5089874;28;19927;-71
2023/03/01 09:54:58;;;;;;;;;;;18.60;30.70;;;;;;5088729;28;19920;-70
2023/03/01 10:02:49;;;;;;;;;;;18.30;30.90;;;;;;5110169;27;19912;-70
2023/03/01 10:10:44;;;;;;;;;;;18.00;31.20;;;;;;5089879;28;20359;-70
2023/03/01 10:13:16;;;;;;;;;;;17.90;31.30;;;;;;5088911;28;20299;-70
2023/03/01 10:15:47;;;;;;;;;;;17.80;31.40;;;;;;5088863;28;19924;-70
2023/03/01 10:18:16;;;;;;;;;;;17.80;31.50;;;;;;5088557;28;19947;-70
2023/03/01 10:20:45;;;;;;;;;;;17.70;31.50;;;;;;5088428;28;19921;-71
2023/03/01 10:23:13;;;;;;;;;;;17.60;31.70;;;;;;5088408;28;20050;-70
2023/03/01 10:31:12;;;;;;;;;;;17.40;31.80;;;;;;5110334;27;19960;-70
2023/03/01 10:33:39;;;;;;;;;;;17.30;31.90;;;;;;5109051;28;20014;-70
2023/03/01 10:36:05;;;;;;;;;;;17.30;32.00;;;;;;5109166;28;19919;-70
2023/03/01 10:38:46;;;;;;;;;;;17.20;32.00;;;;;;5108797;28;19920;-72
2023/03/01 10:41:11;;;;;;;;;;;17.10;32.00;;;;;;5108788;28;19920;-70
2023/03/01 10:43:44;;;;;;;;;;;17.30;32.20;;;;;;5109079;28;20018;-70
2023/03/01 10:46:22;;;;;;;;;;;17.40;32.00;;;;;;5108697;28;19919;-70
2023/03/01 10:49:05;;;;;;;;;;;17.60;31.90;;;;;;5107899;28;20430;-70
2023/03/01 10:51:30;;;;;;;;;;;17.90;31.70;;;;;;5108697;28;20275;-70
2023/03/01 10:53:56;;;;;;;;;;;18.30;31.40;;;;;;5108878;28;19927;-70
2023/03/01 10:56:21;;;;;;;;;;;18.60;31.10;;;;;;5108353;28;19927;-70
2023/03/01 10:59:04;;;;;;;;;;;19.10;30.70;;;;;;5108787;28;19927;-70
2023/03/01 11:01:32;;;;;;;;;;;19.40;30.30;;;;;;5108311;28;19920;-70
2023/03/01 11:04:13;;;;;;;;;;;19.80;29.90;;;;;;5108409;28;19920;-70
2023/03/01 11:06:40;;;;;;;;;;;20.20;29.70;;;;;;5109534;28;19920;-70
2023/03/01 11:09:22;;;;;;;;;;;20.60;29.30;;;;;;5108511;28;19947;-69
2023/03/01 11:11:55;;;;;;;;;;;20.90;29.10;;;;;;5109526;28;19924;-70
2023/03/01 11:14:22;;;;;;;;;;;21.20;28.90;;;;;;5108245;28;20387;-70
2023/03/01 11:16:57;;;;;;;;;;;21.40;28.70;;;;;;5108147;28;19923;-70
2023/03/01 11:19:22;;;;;;;;;;;21.70;28.50;;;;;;5109540;28;19919;-70
2023/03/01 11:22:08;;;;;;;;;;;21.80;28.30;;;;;;5109824;28;20003;-70
2023/03/01 11:24:54;;;;;;;;;;;21.90;28.20;;;;;;5142553;27;19924;-70
2023/03/01 11:27:22;;;;;;;;;;;21.90;28.10;;;;;;5142279;27;19920;-70
2023/03/01 11:29:52;;;;;;;;;;;21.90;28.10;;;;;;5109061;28;19925;-70
2023/03/01 11:32:19;;;;;;;;;;;21.90;28.10;;;;;;5129347;28;20313;-70
2023/03/01 11:34:48;;;;;;;;;;;21.80;28.00;;;;;;5111434;28;19926;-70
2023/03/01 11:37:24;;;;;;;;;;;21.80;28.10;;;;;;5111134;28;19974;-70
2023/03/01 11:39:53;;;;;;;;;;;21.60;28.10;;;;;;5111407;28;19965;-70
2023/03/01 11:42:24;;;;;;;;;;;21.50;28.10;;;;;;5127893;27;20014;-70
2023/03/01 11:44:52;;;;;;;;;;;21.40;28.30;;;;;;5110911;28;19920;-70
2023/03/01 11:47:37;;;;;;;;;;;21.30;28.30;;;;;;5077032;28;20056;-70
2023/03/01 11:52:52;;;;;;;;;;;21.00;28.40;;;;;;5089937;28;19919;-70
2023/03/01 11:58:27;;;;;;;;;;;20.70;28.60;;;;;;5130682;27;20466;-70
2023/03/01 12:01:01;;;;;;;;;;;20.60;28.80;;;;;;5129290;28;20382;-69
2023/03/01 12:08:55;;;;;;;;;;;20.10;29.10;;;;;;5089802;28;20277;-69
2023/03/01 12:11:41;;;;;;;;;;;20.00;29.30;;;;;;5088644;28;19924;-69
2023/03/01 12:14:26;;;;;;;;;;;19.80;29.30;;;;;;5088233;28;20399;-70
2023/03/01 12:20:00;;;;;;;;;;;19.60;29.50;;;;;;5110177;27;20363;-70
2023/03/01 12:25:26;;;;;;;;;;;19.40;29.70;;;;;;5110234;27;20294;-69
2023/03/01 12:28:02;;;;;;;;;;;19.20;29.70;;;;;;5109174;28;19978;-69
2023/03/01 12:30:34;;;;;;;;;;;19.20;29.90;;;;;;5108865;28;19926;-69
2023/03/01 12:33:20;;;;;;;;;;;19.10;29.90;;;;;;5143555;27;19965;-70
2023/03/01 12:38:40;;;;;;;;;;;18.90;30.00;;;;;;5089901;28;19917;-70
2023/03/01 12:41:11;;;;;;;;;;;18.80;30.00;;;;;;5088548;28;19927;-70
2023/03/01 12:43:56;;;;;;;;;;;18.80;30.10;;;;;;5089855;28;19927;-70
2023/03/01 12:46:29;;;;;;;;;;;18.70;30.20;;;;;;5089538;28;19993;-70
2023/03/01 12:49:07;;;;;;;;;;;18.70;30.30;;;;;;5089900;28;19970;-70
2023/03/01 12:51:34;;;;;;;;;;;18.50;30.30;;;;;;5088829;28;19920;-70
2023/03/01 12:54:04;;;;;;;;;;;18.50;30.50;;;;;;5088377;28;19970;-70
2023/03/01 12:56:34;;;;;;;;;;;18.40;30.50;;;;;;5068229;28;19925;-70
2023/03/01 13:01:51;;;;;;;;;;;18.30;30.80;;;;;;5086310;27;1867258;-69
2023/03/01 13:04:22;;;;;;;;;;;18.20;30.80;;;;;;5132910;27;19958;-69
2023/03/01 13:07:08;;;;;;;;;;;18.10;30.90;;;;;;5132765;27;19920;-69
2023/03/01 13:09:53;;;;;;;;;;;18.00;31.00;;;;;;5132870;27;19923;-69
2023/03/01 13:12:38;;;;;;;;;;;18.00;31.10;;;;;;5132795;27;19923;-70
2023/03/01 13:15:24;;;;;;;;;;;17.90;31.20;;;;;;5132440;27;19919;-70
2023/03/01 13:20:32;;;;;;;;;;;17.80;31.40;;;;;;5127514;27;1864149;-70
2023/03/01 13:23:03;;;;;;;;;;;17.70;31.50;;;;;;5174744;27;20043;-70
2023/03/01 13:25:29;;;;;;;;;;;17.60;31.60;;;;;;5174379;27;19925;-70
2023/03/01 13:28:14;;;;;;;;;;;17.60;31.70;;;;;;5174351;27;19997;-69
2023/03/01 13:30:41;;;;;;;;;;;17.50;31.80;;;;;;5174000;27;20034;-72
2023/03/01 13:33:27;;;;;;;;;;;17.50;31.90;;;;;;5193283;27;19971;-70
2023/03/01 13:35:53;;;;;;;;;;;17.40;32.00;;;;;;5174158;27;19919;-69
2023/03/01 13:38:38;;;;;;;;;;;17.30;32.10;;;;;;5174399;27;20025;-70
2023/03/01 13:41:04;;;;;;;;;;;17.20;32.10;;;;;;5174110;27;20017;-69
2023/03/01 13:43:32;;;;;;;;;;;17.20;32.30;;;;;;5174382;27;20355;-70
2023/03/01 13:45:59;;;;;;;;;;;17.10;32.30;;;;;;5174578;27;20009;-70
2023/03/01 13:48:27;;;;;;;;;;;17.10;32.40;;;;;;5173913;27;19971;-70
2023/03/01 13:51:00;;;;;;;;;;;17.10;32.50;;;;;;5174177;27;19963;-70
2023/03/01 13:53:27;;;;;;;;;;;17.00;32.50;;;;;;5173728;27;20373;-69
2023/03/01 13:56:00;;;;;;;;;;;17.00;32.60;;;;;;5173926;27;20034;-69
2023/03/01 13:58:28;;;;;;;;;;;16.90;32.70;;;;;;5173638;27;19922;-69
2023/03/01 14:00:56;;;;;;;;;;;16.90;32.70;;;;;;5192674;27;19941;-70
2023/03/01 14:03:22;;;;;;;;;;;16.80;32.70;;;;;;5173776;27;19929;-70
2023/03/01 14:08:43;;;;;;;;;;;16.80;32.80;;;;;;5110214;27;19918;-69
2023/03/01 14:11:29;;;;;;;;;;;16.70;32.70;;;;;;5108857;28;19920;-70
2023/03/01 14:19:30;;;;;;;;;;;16.70;32.90;;;;;;5089957;28;20264;-71
2023/03/01 14:22:14;;;;;;;;;;;16.70;32.80;;;;;;5088915;28;19921;-69
2023/03/01 14:24:44;;;;;;;;;;;16.70;32.90;;;;;;5088882;28;19924;-69
2023/03/01 14:27:12;;;;;;;;;;;16.70;32.90;;;;;;5088957;28;19924;-70
2023/03/01 14:29:39;;;;;;;;;;;16.70;32.90;;;;;;5088921;28;20343;-69
2023/03/01 14:34:59;;;;;;;;;;;16.70;32.90;;;;;;5110203;27;19912;-69
2023/03/01 14:37:27;;;;;;;;;;;16.70;33.00;;;;;;5109229;28;20282;-70
2023/03/01 14:39:53;;;;;;;;;;;16.60;33.00;;;;;;5109061;28;19959;-70
2023/03/01 14:42:20;;;;;;;;;;;16.60;33.00;;;;;;5109164;28;19973;-70
2023/03/01 14:44:48;;;;;;;;;;;16.60;33.00;;;;;;5110218;28;20015;-69
2023/03/01 14:47:16;;;;;;;;;;;16.60;33.10;;;;;;5110180;28;20339;-69
2023/03/01 14:49:42;;;;;;;;;;;16.60;33.10;;;;;;5108268;28;19923;-70
2023/03/01 14:52:18;;;;;;;;;;;16.60;33.20;;;;;;5108895;28;19926;-69
2023/03/01 14:54:45;;;;;;;;;;;16.60;33.20;;;;;;5108276;28;19928;-69
2023/03/01 14:57:16;;;;;;;;;;;16.50;33.20;;;;;;5108846;28;19924;-69
2023/03/01 14:59:42;;;;;;;;;;;16.50;33.30;;;;;;5108686;28;20268;-69
2023/03/01 15:02:11;;;;;;;;;;;16.50;33.30;;;;;;5108525;28;20015;-69
2023/03/01 15:04:37;;;;;;;;;;;16.50;33.30;;;;;;5108339;28;20006;-69
2023/03/01 15:07:04;;;;;;;;;;;16.50;33.40;;;;;;5110112;28;20015;-70
2023/03/01 15:09:32;;;;;;;;;;;16.50;33.50;;;;;;5109578;28;19927;-69
2023/03/01 15:12:00;;;;;;;;;;;16.50;33.50;;;;;;5142861;27;19920;-69
2023/03/01 15:17:29;;;;;;;;;;;16.40;33.50;;;;;;5130831;27;20437;-70
2023/03/01 15:19:55;;;;;;;;;;;16.50;33.50;;;;;;5129070;28;19969;-70
2023/03/01 15:22:21;;;;;;;;;;;16.50;33.60;;;;;;5130728;28;19923;-70
2023/03/01 15:24:48;;;;;;;;;;;16.40;33.60;;;;;;5129236;28;19920;-70
2023/03/01 15:27:16;;;;;;;;;;;16.40;33.70;;;;;;5129603;28;20278;-70